<?xml version="1.0" encoding="UTF-8" standalone="no" ?>
<gpx xmlns="http://www.topografix.com/GPX/1/1" xmlns:xsi="http://www.w3.org/2001/XMLSchema-instance" xsi:schemaLocation="http://www.topografix.com/GPX/1/1 http://www.topografix.com/GPX/1/1/gpx.xsd" version="1.1" creator="VisuGPX - https://www.visugpx.com">
  <metadata>
    <name>Vallée de Chevreuse</name>
  </metadata>
  <wpt lat="48.70316" lon="2.07088">
    <ele>79.5</ele>
    <type><![CDATA[GENERIC]]></type>
  </wpt>
  <wpt lat="48.7032" lon="2.07089">
    <ele>78.9</ele>
    <type><![CDATA[GENERIC]]></type>
  </wpt>
  <trk>
    <name><![CDATA[Vallée de Chevreuse 1/3]]></name>
    <extensions>
      <line xmlns="http://www.topografix.com/GPX/gpx_style/0/2">
        <color>0000FF</color>
        <width>4</width>
        <dasharray>8</dasharray>
          <extensions>
            <sens>1</sens>
          </extensions>
      </line>
    </extensions>
    <trkseg>
      <trkpt lat="48.7032" lon="2.07089">
        <ele>79</ele>
        <time>2025-03-15T13:54:30.000Z</time>
      </trkpt>
      <trkpt lat="48.70307" lon="2.06958">
        <ele>78</ele>
        <time>2025-03-15T13:56:10.000Z</time>
      </trkpt>
      <trkpt lat="48.7032" lon="2.06957">
        <ele>77</ele>
        <time>2025-03-15T13:56:24.000Z</time>
      </trkpt>
      <trkpt lat="48.7032" lon="2.0693">
        <ele>76</ele>
        <time>2025-03-15T13:56:44.000Z</time>
      </trkpt>
      <trkpt lat="48.70274" lon="2.06824">
        <ele>76</ele>
        <time>2025-03-15T13:58:19.000Z</time>
      </trkpt>
      <trkpt lat="48.70223" lon="2.06545">
        <ele>77</ele>
        <time>2025-03-15T14:00:23.000Z</time>
      </trkpt>
      <trkpt lat="48.70232" lon="2.06298">
        <ele>81</ele>
        <time>2025-03-15T14:04:11.000Z</time>
      </trkpt>
      <trkpt lat="48.70254" lon="2.06179">
        <ele>80</ele>
        <time>2025-03-15T14:06:16.000Z</time>
      </trkpt>
      <trkpt lat="48.70268" lon="2.05768">
        <ele>81</ele>
        <time>2025-03-15T14:11:21.000Z</time>
      </trkpt>
      <trkpt lat="48.7023" lon="2.05585">
        <ele>81</ele>
        <time>2025-03-15T14:13:46.000Z</time>
      </trkpt>
      <trkpt lat="48.70237" lon="2.05541">
        <ele>80</ele>
        <time>2025-03-15T14:14:20.000Z</time>
      </trkpt>
      <trkpt lat="48.70221" lon="2.05499">
        <ele>81</ele>
        <time>2025-03-15T14:15:07.000Z</time>
      </trkpt>
      <trkpt lat="48.70206" lon="2.05304">
        <ele>86</ele>
        <time>2025-03-15T14:17:47.000Z</time>
      </trkpt>
      <trkpt lat="48.70229" lon="2.05292">
        <ele>86</ele>
        <time>2025-03-15T14:18:15.000Z</time>
      </trkpt>
      <trkpt lat="48.70302" lon="2.0514">
        <ele>87</ele>
        <time>2025-03-15T14:20:47.000Z</time>
      </trkpt>
      <trkpt lat="48.70373" lon="2.04938">
        <ele>85</ele>
        <time>2025-03-15T14:23:36.000Z</time>
      </trkpt>
      <trkpt lat="48.70415" lon="2.04844">
        <ele>84</ele>
        <time>2025-03-15T14:25:01.000Z</time>
      </trkpt>
      <trkpt lat="48.70432" lon="2.04772">
        <ele>82</ele>
        <time>2025-03-15T14:25:59.000Z</time>
      </trkpt>
      <trkpt lat="48.70513" lon="2.04703">
        <ele>78</ele>
        <time>2025-03-15T14:27:00.000Z</time>
      </trkpt>
      <trkpt lat="48.70562" lon="2.04659">
        <ele>77</ele>
        <time>2025-03-15T14:28:05.000Z</time>
      </trkpt>
      <trkpt lat="48.70607" lon="2.04564">
        <ele>77</ele>
        <time>2025-03-15T14:29:33.000Z</time>
      </trkpt>
      <trkpt lat="48.70663" lon="2.04567">
        <ele>79</ele>
        <time>2025-03-15T14:30:49.000Z</time>
      </trkpt>
      <trkpt lat="48.70665" lon="2.04449">
        <ele>78</ele>
        <time>2025-03-15T14:32:18.000Z</time>
      </trkpt>
      <trkpt lat="48.70673" lon="2.04375">
        <ele>78</ele>
        <time>2025-03-15T14:33:15.000Z</time>
      </trkpt>
      <trkpt lat="48.70677" lon="2.04207">
        <ele>78</ele>
        <time>2025-03-15T14:35:22.000Z</time>
      </trkpt>
      <trkpt lat="48.70664" lon="2.03984">
        <ele>78</ele>
        <time>2025-03-15T14:38:14.000Z</time>
      </trkpt>
      <trkpt lat="48.7071" lon="2.03961">
        <ele>81</ele>
        <time>2025-03-15T14:39:40.000Z</time>
      </trkpt>
      <trkpt lat="48.70746" lon="2.03929">
        <ele>83</ele>
        <time>2025-03-15T14:40:50.000Z</time>
      </trkpt>
      <trkpt lat="48.70757" lon="2.03976">
        <ele>84</ele>
        <time>2025-03-15T14:41:38.000Z</time>
      </trkpt>
      <trkpt lat="48.7079" lon="2.04027">
        <ele>87</ele>
        <time>2025-03-15T14:43:03.000Z</time>
      </trkpt>
      <trkpt lat="48.70836" lon="2.04072">
        <ele>92</ele>
        <time>2025-03-15T14:44:41.000Z</time>
      </trkpt>
      <trkpt lat="48.70829" lon="2.04098">
        <ele>92</ele>
        <time>2025-03-15T14:45:03.000Z</time>
      </trkpt>
      <trkpt lat="48.70869" lon="2.04129">
        <ele>102</ele>
        <time>2025-03-15T14:47:37.000Z</time>
      </trkpt>
      <trkpt lat="48.70892" lon="2.04078">
        <ele>105</ele>
        <time>2025-03-15T14:48:30.000Z</time>
      </trkpt>
      <trkpt lat="48.70905" lon="2.04092">
        <ele>107</ele>
        <time>2025-03-15T14:49:09.000Z</time>
      </trkpt>
      <trkpt lat="48.7091" lon="2.04151">
        <ele>116</ele>
        <time>2025-03-15T14:51:27.000Z</time>
      </trkpt>
      <trkpt lat="48.7093" lon="2.04186">
        <ele>125</ele>
        <time>2025-03-15T14:50:58.000Z</time>
      </trkpt>
      <trkpt lat="48.70946" lon="2.0416">
        <ele>131</ele>
        <time>2025-03-15T14:53:28.000Z</time>
      </trkpt>
      <trkpt lat="48.7095" lon="2.04225">
        <ele>136</ele>
        <time>2025-03-15T14:55:09.000Z</time>
      </trkpt>
      <trkpt lat="48.70969" lon="2.04168">
        <ele>142</ele>
        <time>2025-03-15T14:56:59.000Z</time>
      </trkpt>
      <trkpt lat="48.71011" lon="2.04151">
        <ele>152</ele>
        <time>2025-03-15T15:00:00.000Z</time>
      </trkpt>
      <trkpt lat="48.71051" lon="2.04113">
        <ele>150</ele>
        <time>2025-03-15T15:00:52.000Z</time>
      </trkpt>
      <trkpt lat="48.71082" lon="2.04137">
        <ele>154</ele>
        <time>2025-03-15T15:02:52.000Z</time>
      </trkpt>
      <trkpt lat="48.71129" lon="2.04147">
        <ele>156</ele>
        <time>2025-03-15T15:06:26.000Z</time>
      </trkpt>
      <trkpt lat="48.7115" lon="2.04241">
        <ele>157</ele>
        <time>2025-03-15T15:07:51.000Z</time>
      </trkpt>
      <trkpt lat="48.71156" lon="2.04304">
        <ele>158</ele>
        <time>2025-03-15T15:08:50.000Z</time>
      </trkpt>
      <trkpt lat="48.71178" lon="2.04351">
        <ele>160</ele>
        <time>2025-03-15T15:10:12.000Z</time>
      </trkpt>
      <trkpt lat="48.71224" lon="2.04221">
        <ele>161</ele>
        <time>2025-03-15T15:12:13.000Z</time>
      </trkpt>
      <trkpt lat="48.7127" lon="2.04172">
        <ele>162</ele>
        <time>2025-03-15T15:13:29.000Z</time>
      </trkpt>
      <trkpt lat="48.71323" lon="2.04141">
        <ele>163</ele>
        <time>2025-03-15T15:14:44.000Z</time>
      </trkpt>
      <trkpt lat="48.71391" lon="2.04">
        <ele>163</ele>
        <time>2025-03-15T15:16:45.000Z</time>
      </trkpt>
      <trkpt lat="48.71425" lon="2.04007">
        <ele>164</ele>
        <time>2025-03-15T15:17:34.000Z</time>
      </trkpt>
      <trkpt lat="48.7161" lon="2.03926">
        <ele>168</ele>
        <time>2025-03-15T15:21:16.000Z</time>
      </trkpt>
      <trkpt lat="48.71829" lon="2.03933">
        <ele>169</ele>
        <time>2025-03-15T15:25:49.000Z</time>
      </trkpt>
      <trkpt lat="48.71838" lon="2.0385">
        <ele>169</ele>
        <time>2025-03-15T15:26:52.000Z</time>
      </trkpt>
      <trkpt lat="48.72193" lon="2.03988">
        <ele>162</ele>
        <time>2025-03-15T15:34:29.000Z</time>
      </trkpt>
      <trkpt lat="48.72222" lon="2.04039">
        <ele>161</ele>
        <time>2025-03-15T15:35:20.000Z</time>
      </trkpt>
      <trkpt lat="48.72309" lon="2.03942">
        <ele>159</ele>
        <time>2025-03-15T15:35:54.000Z</time>
      </trkpt>
      <trkpt lat="48.72349" lon="2.03812">
        <ele>159</ele>
        <time>2025-03-15T15:38:21.000Z</time>
      </trkpt>
      <trkpt lat="48.72414" lon="2.03848">
        <ele>158</ele>
        <time>2025-03-15T15:39:40.000Z</time>
      </trkpt>
      <trkpt lat="48.72428" lon="2.03809">
        <ele>156</ele>
        <time>2025-03-15T15:40:14.000Z</time>
      </trkpt>
      <trkpt lat="48.72459" lon="2.03798">
        <ele>151</ele>
        <time>2025-03-15T15:40:50.000Z</time>
      </trkpt>
      <trkpt lat="48.72478" lon="2.03819">
        <ele>149</ele>
        <time>2025-03-15T15:41:17.000Z</time>
      </trkpt>
      <trkpt lat="48.7251" lon="2.03792">
        <ele>139</ele>
        <time>2025-03-15T15:41:17.000Z</time>
      </trkpt>
      <trkpt lat="48.7254" lon="2.03799">
        <ele>129</ele>
        <time>2025-03-15T15:41:51.000Z</time>
      </trkpt>
      <trkpt lat="48.72584" lon="2.03795">
        <ele>119</ele>
        <time>2025-03-15T15:42:42.000Z</time>
      </trkpt>
      <trkpt lat="48.7265" lon="2.03889">
        <ele>108</ele>
        <time>2025-03-15T15:43:56.000Z</time>
      </trkpt>
      <trkpt lat="48.72693" lon="2.03957">
        <ele>98</ele>
        <time>2025-03-15T15:45:34.000Z</time>
      </trkpt>
      <trkpt lat="48.72671" lon="2.04097">
        <ele>96</ele>
        <time>2025-03-15T15:46:59.000Z</time>
      </trkpt>
      <trkpt lat="48.72879" lon="2.0426">
        <ele>104</ele>
        <time>2025-03-15T15:53:13.000Z</time>
      </trkpt>
      <trkpt lat="48.72867" lon="2.04023">
        <ele>98</ele>
        <time>2025-03-15T15:57:03.000Z</time>
      </trkpt>
      <trkpt lat="48.72936" lon="2.03822">
        <ele>101</ele>
        <time>2025-03-15T15:59:36.000Z</time>
      </trkpt>
      <trkpt lat="48.72949" lon="2.03637">
        <ele>100</ele>
        <time>2025-03-15T16:01:48.000Z</time>
      </trkpt>
      <trkpt lat="48.72917" lon="2.03557">
        <ele>97</ele>
        <time>2025-03-15T16:03:35.000Z</time>
      </trkpt>
      <trkpt lat="48.72962" lon="2.03329">
        <ele>101</ele>
        <time>2025-03-15T16:06:54.000Z</time>
      </trkpt>
      <trkpt lat="48.72916" lon="2.03225">
        <ele>99</ele>
        <time>2025-03-15T16:08:25.000Z</time>
      </trkpt>
      <trkpt lat="48.72929" lon="2.02876">
        <ele>100</ele>
        <time>2025-03-15T16:13:21.000Z</time>
      </trkpt>
      <trkpt lat="48.72947" lon="2.02832">
        <ele>101</ele>
        <time>2025-03-15T16:14:11.000Z</time>
      </trkpt>
      <trkpt lat="48.73028" lon="2.02771">
        <ele>102</ele>
        <time>2025-03-15T16:16:05.000Z</time>
      </trkpt>
      <trkpt lat="48.73049" lon="2.02721">
        <ele>101</ele>
        <time>2025-03-15T16:16:49.000Z</time>
      </trkpt>
      <trkpt lat="48.73284" lon="2.02466">
        <ele>105</ele>
        <time>2025-03-15T16:23:01.000Z</time>
      </trkpt>
      <trkpt lat="48.73398" lon="2.02377">
        <ele>105</ele>
        <time>2025-03-15T16:25:15.000Z</time>
      </trkpt>
      <trkpt lat="48.73447" lon="2.02294">
        <ele>103</ele>
        <time>2025-03-15T16:26:39.000Z</time>
      </trkpt>
      <trkpt lat="48.7351" lon="2.02296">
        <ele>105</ele>
        <time>2025-03-15T16:27:08.000Z</time>
      </trkpt>
      <trkpt lat="48.73649" lon="2.02287">
        <ele>107</ele>
        <time>2025-03-15T16:30:44.000Z</time>
      </trkpt>
      <trkpt lat="48.73804" lon="2.02252">
        <ele>111</ele>
        <time>2025-03-15T16:34:08.000Z</time>
      </trkpt>
      <trkpt lat="48.7392" lon="2.02258">
        <ele>111</ele>
        <time>2025-03-15T16:36:21.000Z</time>
      </trkpt>
      <trkpt lat="48.73999" lon="2.02293">
        <ele>111</ele>
        <time>2025-03-15T16:37:53.000Z</time>
      </trkpt>
      <trkpt lat="48.74043" lon="2.02261">
        <ele>112</ele>
        <time>2025-03-15T16:38:59.000Z</time>
      </trkpt>
      <trkpt lat="48.7411" lon="2.02088">
        <ele>111</ele>
        <time>2025-03-15T16:41:31.000Z</time>
      </trkpt>
      <trkpt lat="48.74186" lon="2.01957">
        <ele>112</ele>
        <time>2025-03-15T16:43:35.000Z</time>
      </trkpt>
      <trkpt lat="48.74401" lon="2.01832">
        <ele>126</ele>
        <time>2025-03-15T16:50:23.000Z</time>
      </trkpt>
      <trkpt lat="48.74546" lon="2.01732">
        <ele>122</ele>
        <time>2025-03-15T16:53:33.000Z</time>
      </trkpt>
      <trkpt lat="48.74543" lon="2.01676">
        <ele>121</ele>
        <time>2025-03-15T16:54:16.000Z</time>
      </trkpt>
      <trkpt lat="48.74551" lon="2.01608">
        <ele>122</ele>
        <time>2025-03-15T16:55:18.000Z</time>
      </trkpt>
      <trkpt lat="48.74527" lon="2.01491">
        <ele>119</ele>
        <time>2025-03-15T16:56:17.000Z</time>
      </trkpt>
      <trkpt lat="48.74576" lon="2.01366">
        <ele>123</ele>
        <time>2025-03-15T16:58:48.000Z</time>
      </trkpt>
      <trkpt lat="48.74594" lon="2.01226">
        <ele>123</ele>
        <time>2025-03-15T17:00:36.000Z</time>
      </trkpt>
      <trkpt lat="48.74649" lon="2.01116">
        <ele>125</ele>
        <time>2025-03-15T17:01:00.000Z</time>
      </trkpt>
      <trkpt lat="48.74671" lon="2.01005">
        <ele>125</ele>
        <time>2025-03-15T17:03:58.000Z</time>
      </trkpt>
      <trkpt lat="48.74651" lon="2.00824">
        <ele>128</ele>
        <time>2025-03-15T17:08:17.000Z</time>
      </trkpt>
      <trkpt lat="48.74737" lon="2.00644">
        <ele>127</ele>
        <time>2025-03-15T17:11:05.000Z</time>
      </trkpt>
      <trkpt lat="48.74775" lon="2.00462">
        <ele>139</ele>
        <time>2025-03-15T17:13:52.000Z</time>
      </trkpt>
      <trkpt lat="48.7476" lon="2.00248">
        <ele>150</ele>
        <time>2025-03-15T17:17:29.000Z</time>
      </trkpt>
      <trkpt lat="48.74815" lon="2.00199">
        <ele>163</ele>
        <time>2025-03-15T17:20:56.000Z</time>
      </trkpt>
      <trkpt lat="48.74854" lon="2.0011">
        <ele>164</ele>
        <time>2025-03-15T17:22:27.000Z</time>
      </trkpt>
      <trkpt lat="48.74849" lon="1.99966">
        <ele>157</ele>
        <time>2025-03-15T17:24:11.000Z</time>
      </trkpt>
      <trkpt lat="48.74871" lon="1.9983">
        <ele>164</ele>
        <time>2025-03-15T17:27:08.000Z</time>
      </trkpt>
      <trkpt lat="48.74849" lon="1.9967">
        <ele>158</ele>
        <time>2025-03-15T17:28:06.000Z</time>
      </trkpt>
      <trkpt lat="48.74887" lon="1.99555">
        <ele>156</ele>
        <time>2025-03-15T17:29:59.000Z</time>
      </trkpt>
      <trkpt lat="48.7488" lon="1.99511">
        <ele>156</ele>
        <time>2025-03-15T17:30:33.000Z</time>
      </trkpt>
      <trkpt lat="48.7486" lon="1.99475">
        <ele>155</ele>
        <time>2025-03-15T17:31:08.000Z</time>
      </trkpt>
      <trkpt lat="48.74859" lon="1.99432">
        <ele>157</ele>
        <time>2025-03-15T17:32:01.000Z</time>
      </trkpt>
      <trkpt lat="48.749" lon="1.99382">
        <ele>162</ele>
        <time>2025-03-15T17:33:30.000Z</time>
      </trkpt>
      <trkpt lat="48.74859" lon="1.99268">
        <ele>157</ele>
        <time>2025-03-15T17:35:26.000Z</time>
      </trkpt>
      <trkpt lat="48.74789" lon="1.99255">
        <ele>144</ele>
        <time>2025-03-15T17:36:47.000Z</time>
      </trkpt>
      <trkpt lat="48.74785" lon="1.99197">
        <ele>145</ele>
        <time>2025-03-15T17:37:41.000Z</time>
      </trkpt>
      <trkpt lat="48.74738" lon="1.99145">
        <ele>147</ele>
        <time>2025-03-15T17:37:46.000Z</time>
      </trkpt>
      <trkpt lat="48.74668" lon="1.9914">
        <ele>158</ele>
        <time>2025-03-15T17:40:59.000Z</time>
      </trkpt>
      <trkpt lat="48.74527" lon="1.992">
        <ele>163</ele>
        <time>2025-03-15T17:44:12.000Z</time>
      </trkpt>
      <trkpt lat="48.74562" lon="1.99072">
        <ele>161</ele>
        <time>2025-03-15T17:45:57.000Z</time>
      </trkpt>
      <trkpt lat="48.74617" lon="1.9894">
        <ele>157</ele>
        <time>2025-03-15T17:47:55.000Z</time>
      </trkpt>
      <trkpt lat="48.74637" lon="1.98819">
        <ele>156</ele>
        <time>2025-03-15T17:49:20.000Z</time>
      </trkpt>
      <trkpt lat="48.74591" lon="1.98443">
        <ele>157</ele>
        <time>2025-03-15T17:54:19.000Z</time>
      </trkpt>
      <trkpt lat="48.74479" lon="1.98169">
        <ele>160</ele>
        <time>2025-03-15T17:59:15.000Z</time>
      </trkpt>
      <trkpt lat="48.74341" lon="1.97976">
        <ele>162</ele>
        <time>2025-03-15T18:03:11.000Z</time>
      </trkpt>
      <trkpt lat="48.74206" lon="1.9782">
        <ele>163</ele>
        <time>2025-03-15T18:06:36.000Z</time>
      </trkpt>
      <trkpt lat="48.73975" lon="1.97429">
        <ele>166</ele>
        <time>2025-03-15T18:13:08.000Z</time>
      </trkpt>
      <trkpt lat="48.74053" lon="1.97227">
        <ele>167</ele>
        <time>2025-03-15T18:16:39.000Z</time>
      </trkpt>
      <trkpt lat="48.7406" lon="1.97146">
        <ele>168</ele>
        <time>2025-03-15T18:17:51.000Z</time>
      </trkpt>
      <trkpt lat="48.74026" lon="1.96894">
        <ele>169</ele>
        <time>2025-03-15T18:21:03.000Z</time>
      </trkpt>
      <trkpt lat="48.7402" lon="1.96862">
        <ele>168</ele>
        <time>2025-03-15T18:21:28.000Z</time>
      </trkpt>
      <trkpt lat="48.73816" lon="1.96545">
        <ele>171</ele>
        <time>2025-03-15T18:27:33.000Z</time>
      </trkpt>
      <trkpt lat="48.73718" lon="1.96462">
        <ele>172</ele>
        <time>2025-03-15T18:29:28.000Z</time>
      </trkpt>
      <trkpt lat="48.7386" lon="1.9604">
        <ele>174</ele>
        <time>2025-03-15T18:35:46.000Z</time>
      </trkpt>
      <trkpt lat="48.73967" lon="1.96155">
        <ele>173</ele>
        <time>2025-03-15T18:35:35.000Z</time>
      </trkpt>
      <trkpt lat="48.73703" lon="1.95831">
        <ele>175</ele>
        <time>2025-03-15T18:42:24.000Z</time>
      </trkpt>
      <trkpt lat="48.73519" lon="1.95688">
        <ele>173</ele>
        <time>2025-03-15T18:46:21.000Z</time>
      </trkpt>
      <trkpt lat="48.73368" lon="1.95532">
        <ele>172</ele>
        <time>2025-03-15T18:49:50.000Z</time>
      </trkpt>
      <trkpt lat="48.7334" lon="1.9544">
        <ele>168</ele>
        <time>2025-03-15T18:48:07.000Z</time>
      </trkpt>
      <trkpt lat="48.73405" lon="1.95339">
        <ele>165</ele>
        <time>2025-03-15T18:49:53.000Z</time>
      </trkpt>
      <trkpt lat="48.73474" lon="1.95322">
        <ele>165</ele>
        <time>2025-03-15T18:50:54.000Z</time>
      </trkpt>
      <trkpt lat="48.73374" lon="1.95275">
        <ele>148</ele>
        <time>2025-03-15T18:52:54.000Z</time>
      </trkpt>
      <trkpt lat="48.73311" lon="1.95274">
        <ele>137</ele>
        <time>2025-03-15T18:54:06.000Z</time>
      </trkpt>
      <trkpt lat="48.73253" lon="1.95207">
        <ele>122</ele>
        <time>2025-03-15T18:54:49.000Z</time>
      </trkpt>
      <trkpt lat="48.73208" lon="1.95122">
        <ele>118</ele>
        <time>2025-03-15T18:56:39.000Z</time>
      </trkpt>
      <trkpt lat="48.73089" lon="1.95111">
        <ele>119</ele>
        <time>2025-03-15T18:59:25.000Z</time>
      </trkpt>
      <trkpt lat="48.72992" lon="1.94953">
        <ele>121</ele>
        <time>2025-03-15T19:02:01.000Z</time>
      </trkpt>
      <trkpt lat="48.72966" lon="1.94921">
        <ele>122</ele>
        <time>2025-03-15T19:02:50.000Z</time>
      </trkpt>
      <trkpt lat="48.72921" lon="1.95014">
        <ele>123</ele>
        <time>2025-03-15T19:04:27.000Z</time>
      </trkpt>
      <trkpt lat="48.72818" lon="1.95126">
        <ele>117</ele>
        <time>2025-03-15T19:06:52.000Z</time>
      </trkpt>
      <trkpt lat="48.72644" lon="1.95247">
        <ele>115</ele>
        <time>2025-03-15T19:10:31.000Z</time>
      </trkpt>
      <trkpt lat="48.7259" lon="1.95255">
        <ele>114</ele>
        <time>2025-03-15T19:11:34.000Z</time>
      </trkpt>
      <trkpt lat="48.72345" lon="1.95459">
        <ele>113</ele>
        <time>2025-03-15T19:16:24.000Z</time>
      </trkpt>
      <trkpt lat="48.72399" lon="1.95611">
        <ele>111</ele>
        <time>2025-03-15T19:18:02.000Z</time>
      </trkpt>
      <trkpt lat="48.72374" lon="1.9564">
        <ele>110</ele>
        <time>2025-03-15T19:18:38.000Z</time>
      </trkpt>
      <trkpt lat="48.72444" lon="1.95687">
        <ele>119</ele>
        <time>2025-03-15T19:21:33.000Z</time>
      </trkpt>
      <trkpt lat="48.72441" lon="1.95742">
        <ele>123</ele>
        <time>2025-03-15T19:22:56.000Z</time>
      </trkpt>
      <trkpt lat="48.72426" lon="1.95795">
        <ele>128</ele>
        <time>2025-03-15T19:24:31.000Z</time>
      </trkpt>
      <trkpt lat="48.72427" lon="1.9588">
        <ele>130</ele>
        <time>2025-03-15T19:25:36.000Z</time>
      </trkpt>
      <trkpt lat="48.72452" lon="1.95974">
        <ele>133</ele>
        <time>2025-03-15T19:27:24.000Z</time>
      </trkpt>
      <trkpt lat="48.72454" lon="1.96075">
        <ele>138</ele>
        <time>2025-03-15T19:29:32.000Z</time>
      </trkpt>
      <trkpt lat="48.72472" lon="1.96199">
        <ele>148</ele>
        <time>2025-03-15T19:32:50.000Z</time>
      </trkpt>
      <trkpt lat="48.72492" lon="1.96233">
        <ele>154</ele>
        <time>2025-03-15T19:34:26.000Z</time>
      </trkpt>
      <trkpt lat="48.72495" lon="1.96276">
        <ele>159</ele>
        <time>2025-03-15T19:35:55.000Z</time>
      </trkpt>
      <trkpt lat="48.7242" lon="1.96275">
        <ele>159</ele>
        <time>2025-03-15T19:37:21.000Z</time>
      </trkpt>
      <trkpt lat="48.72257" lon="1.96172">
        <ele>157</ele>
        <time>2025-03-15T19:40:00.000Z</time>
      </trkpt>
      <trkpt lat="48.72175" lon="1.96194">
        <ele>157</ele>
        <time>2025-03-15T19:41:35.000Z</time>
      </trkpt>
      <trkpt lat="48.72122" lon="1.96227">
        <ele>151</ele>
        <time>2025-03-15T19:43:16.000Z</time>
      </trkpt>
      <trkpt lat="48.72087" lon="1.96169">
        <ele>146</ele>
        <time>2025-03-15T19:44:15.000Z</time>
      </trkpt>
      <trkpt lat="48.72089" lon="1.96135">
        <ele>144</ele>
        <time>2025-03-15T19:45:00.000Z</time>
      </trkpt>
      <trkpt lat="48.72043" lon="1.96089">
        <ele>124</ele>
        <time>2025-03-15T19:46:03.000Z</time>
      </trkpt>
      <trkpt lat="48.72024" lon="1.96103">
        <ele>121</ele>
        <time>2025-03-15T19:46:27.000Z</time>
      </trkpt>
      <trkpt lat="48.71983" lon="1.96076">
        <ele>112</ele>
        <time>2025-03-15T19:47:18.000Z</time>
      </trkpt>
      <trkpt lat="48.71973" lon="1.96046">
        <ele>108</ele>
        <time>2025-03-15T19:46:57.000Z</time>
      </trkpt>
      <trkpt lat="48.71951" lon="1.96162">
        <ele>106</ele>
        <time>2025-03-15T19:48:27.000Z</time>
      </trkpt>
      <trkpt lat="48.71932" lon="1.96094">
        <ele>104</ele>
        <time>2025-03-15T19:49:23.000Z</time>
      </trkpt>
      <trkpt lat="48.71899" lon="1.9609">
        <ele>103</ele>
        <time>2025-03-15T19:49:43.000Z</time>
      </trkpt>
      <trkpt lat="48.71882" lon="1.96137">
        <ele>102</ele>
        <time>2025-03-15T19:50:24.000Z</time>
      </trkpt>
      <trkpt lat="48.71889" lon="1.96165">
        <ele>103</ele>
        <time>2025-03-15T19:50:57.000Z</time>
      </trkpt>
      <trkpt lat="48.71851" lon="1.96221">
        <ele>103</ele>
        <time>2025-03-15T19:51:57.000Z</time>
      </trkpt>
      <trkpt lat="48.71843" lon="1.96271">
        <ele>103</ele>
        <time>2025-03-15T19:52:36.000Z</time>
      </trkpt>
      <trkpt lat="48.71849" lon="1.9631">
        <ele>103</ele>
        <time>2025-03-15T19:52:52.000Z</time>
      </trkpt>
      <trkpt lat="48.71826" lon="1.96328">
        <ele>103</ele>
        <time>2025-03-15T19:53:22.000Z</time>
      </trkpt>
      <trkpt lat="48.71812" lon="1.96349">
        <ele>103</ele>
        <time>2025-03-15T19:53:45.000Z</time>
      </trkpt>
      <trkpt lat="48.71779" lon="1.96463">
        <ele>103</ele>
        <time>2025-03-15T19:55:18.000Z</time>
      </trkpt>
      <trkpt lat="48.71704" lon="1.96631">
        <ele>103</ele>
        <time>2025-03-15T19:57:52.000Z</time>
      </trkpt>
      <trkpt lat="48.71662" lon="1.9674">
        <ele>104</ele>
        <time>2025-03-15T19:59:37.000Z</time>
      </trkpt>
      <trkpt lat="48.71655" lon="1.96772">
        <ele>104</ele>
        <time>2025-03-15T20:00:03.000Z</time>
      </trkpt>
      <trkpt lat="48.71613" lon="1.96813">
        <ele>104</ele>
        <time>2025-03-15T20:00:42.000Z</time>
      </trkpt>
      <trkpt lat="48.7161" lon="1.96863">
        <ele>102</ele>
        <time>2025-03-15T20:01:20.000Z</time>
      </trkpt>
      <trkpt lat="48.7166" lon="1.9686">
        <ele>103</ele>
        <time>2025-03-15T20:02:27.000Z</time>
      </trkpt>
      <trkpt lat="48.71751" lon="1.9691">
        <ele>102</ele>
        <time>2025-03-15T20:03:23.000Z</time>
      </trkpt>
      <trkpt lat="48.71755" lon="1.96991">
        <ele>101</ele>
        <time>2025-03-15T20:04:24.000Z</time>
      </trkpt>
      <trkpt lat="48.71729" lon="1.97022">
        <ele>100</ele>
        <time>2025-03-15T20:04:52.000Z</time>
      </trkpt>
      <trkpt lat="48.71741" lon="1.9706">
        <ele>101</ele>
        <time>2025-03-15T20:06:36.000Z</time>
      </trkpt>
      <trkpt lat="48.71739" lon="1.97127">
        <ele>105</ele>
        <time>2025-03-15T20:08:08.000Z</time>
      </trkpt>
      <trkpt lat="48.71686" lon="1.97309">
        <ele>105</ele>
        <time>2025-03-15T20:10:38.000Z</time>
      </trkpt>
      <trkpt lat="48.71685" lon="1.97346">
        <ele>105</ele>
        <time>2025-03-15T20:11:06.000Z</time>
      </trkpt>
      <trkpt lat="48.71663" lon="1.97385">
        <ele>104</ele>
        <time>2025-03-15T20:10:32.000Z</time>
      </trkpt>
      <trkpt lat="48.71662" lon="1.97431">
        <ele>107</ele>
        <time>2025-03-15T20:11:38.000Z</time>
      </trkpt>
      <trkpt lat="48.71614" lon="1.97497">
        <ele>103</ele>
        <time>2025-03-15T20:13:36.000Z</time>
      </trkpt>
      <trkpt lat="48.71595" lon="1.97519">
        <ele>101</ele>
        <time>2025-03-15T20:14:05.000Z</time>
      </trkpt>
      <trkpt lat="48.71533" lon="1.97633">
        <ele>103</ele>
        <time>2025-03-15T20:16:16.000Z</time>
      </trkpt>
      <trkpt lat="48.7151" lon="1.97721">
        <ele>105</ele>
        <time>2025-03-15T20:17:48.000Z</time>
      </trkpt>
      <trkpt lat="48.71484" lon="1.97768">
        <ele>101</ele>
        <time>2025-03-15T20:18:35.000Z</time>
      </trkpt>
      <trkpt lat="48.7146" lon="1.97855">
        <ele>100</ele>
        <time>2025-03-15T20:19:46.000Z</time>
      </trkpt>
      <trkpt lat="48.71462" lon="1.97899">
        <ele>102</ele>
        <time>2025-03-15T20:18:11.000Z</time>
      </trkpt>
      <trkpt lat="48.71435" lon="1.98021">
        <ele>107</ele>
        <time>2025-03-15T20:20:40.000Z</time>
      </trkpt>
      <trkpt lat="48.71438" lon="1.98079">
        <ele>110</ele>
        <time>2025-03-15T20:21:55.000Z</time>
      </trkpt>
      <trkpt lat="48.71429" lon="1.98169">
        <ele>106</ele>
        <time>2025-03-15T20:23:04.000Z</time>
      </trkpt>
      <trkpt lat="48.71391" lon="1.98267">
        <ele>98</ele>
        <time>2025-03-15T20:22:32.000Z</time>
      </trkpt>
      <trkpt lat="48.71361" lon="1.98283">
        <ele>98</ele>
        <time>2025-03-15T20:23:09.000Z</time>
      </trkpt>
      <trkpt lat="48.71306" lon="1.98412">
        <ele>96</ele>
        <time>2025-03-15T20:24:31.000Z</time>
      </trkpt>
      <trkpt lat="48.71301" lon="1.98504">
        <ele>96</ele>
        <time>2025-03-15T20:26:16.000Z</time>
      </trkpt>
      <trkpt lat="48.71267" lon="1.98513">
        <ele>94</ele>
        <time>2025-03-15T20:26:56.000Z</time>
      </trkpt>
      <trkpt lat="48.71182" lon="1.98594">
        <ele>92</ele>
        <time>2025-03-15T20:28:24.000Z</time>
      </trkpt>
      <trkpt lat="48.71133" lon="1.98582">
        <ele>93</ele>
        <time>2025-03-15T20:29:31.000Z</time>
      </trkpt>
      <trkpt lat="48.71035" lon="1.98575">
        <ele>96</ele>
        <time>2025-03-15T20:31:54.000Z</time>
      </trkpt>
      <trkpt lat="48.70974" lon="1.98591">
        <ele>98</ele>
        <time>2025-03-15T20:34:19.000Z</time>
      </trkpt>
      <trkpt lat="48.70927" lon="1.98563">
        <ele>103</ele>
        <time>2025-03-15T20:36:08.000Z</time>
      </trkpt>
      <trkpt lat="48.70875" lon="1.98541">
        <ele>108</ele>
        <time>2025-03-15T20:38:02.000Z</time>
      </trkpt>
      <trkpt lat="48.70832" lon="1.98546">
        <ele>111</ele>
        <time>2025-03-15T20:38:51.000Z</time>
      </trkpt>
      <trkpt lat="48.70787" lon="1.98647">
        <ele>110</ele>
        <time>2025-03-15T20:40:33.000Z</time>
      </trkpt>
      <trkpt lat="48.70735" lon="1.98573">
        <ele>117</ele>
        <time>2025-03-15T20:43:07.000Z</time>
      </trkpt>
      <trkpt lat="48.7066" lon="1.98439">
        <ele>131</ele>
        <time>2025-03-15T20:47:11.000Z</time>
      </trkpt>
      <trkpt lat="48.7067" lon="1.98361">
        <ele>140</ele>
        <time>2025-03-15T20:49:43.000Z</time>
      </trkpt>
      <trkpt lat="48.70651" lon="1.98271">
        <ele>148</ele>
        <time>2025-03-15T20:51:59.000Z</time>
      </trkpt>
      <trkpt lat="48.70631" lon="1.98194">
        <ele>151</ele>
        <time>2025-03-15T20:53:32.000Z</time>
        <extensions>
          <visugpx:TrkExtension xmlns:visugpx="https://www.visugpx.com/editgpx/">
            <visugpx:node>1</visugpx:node>
            </visugpx:TrkExtension>
        </extensions>
      </trkpt>
    </trkseg>
  </trk>
</gpx>